sensor_id;sensor_type;location;lat;lon;timestamp;temperature;humidity
4566;DHT22;2295;51.050;14.608;2023-12-14T00:02:13;3.60;99.90
4566;DHT22;2295;51.050;14.608;2023-12-14T00:04:42;3.50;99.90
4566;DHT22;2295;51.050;14.608;2023-12-14T00:07:10;3.60;99.90
4566;DHT22;2295;51.050;14.608;2023-12-14T00:09:41;3.60;99.90
4566;DHT22;2295;51.050;14.608;2023-12-14T00:12:11;3.60;99.90
4566;DHT22;2295;51.050;14.608;2023-12-14T00:14:39;3.60;99.90
4566;DHT22;2295;51.050;14.608;2023-12-14T00:17:07;3.60;99.90
4566;DHT22;2295;51.050;14.608;2023-12-14T00:19:36;3.60;99.90
4566;DHT22;2295;51.050;14.608;2023-12-14T00:22:04;3.60;99.90
4566;DHT22;2295;51.050;14.608;2023-12-14T00:24:33;3.60;99.90
4566;DHT22;2295;51.050;14.608;2023-12-14T00:27:01;3.70;99.90
4566;DHT22;2295;51.050;14.608;2023-12-14T00:29:31;3.70;99.90
4566;DHT22;2295;51.050;14.608;2023-12-14T00:31:59;3.60;99.90
4566;DHT22;2295;51.050;14.608;2023-12-14T00:34:28;3.60;99.90
4566;DHT22;2295;51.050;14.608;2023-12-14T00:36:56;3.50;99.90
4566;DHT22;2295;51.050;14.608;2023-12-14T00:39:24;3.50;99.90
4566;DHT22;2295;51.050;14.608;2023-12-14T00:41:53;3.50;99.90
4566;DHT22;2295;51.050;14.608;2023-12-14T00:44:21;3.50;99.90
4566;DHT22;2295;51.050;14.608;2023-12-14T00:46:51;3.50;99.90
4566;DHT22;2295;51.050;14.608;2023-12-14T00:49:19;3.40;99.90
4566;DHT22;2295;51.050;14.608;2023-12-14T00:51:47;3.40;99.90
4566;DHT22;2295;51.050;14.608;2023-12-14T00:54:16;3.40;99.90
4566;DHT22;2295;51.050;14.608;2023-12-14T00:56:44;3.30;99.90
4566;DHT22;2295;51.050;14.608;2023-12-14T00:59:12;3.30;99.90
4566;DHT22;2295;51.050;14.608;2023-12-14T01:01:41;3.20;99.90
4566;DHT22;2295;51.050;14.608;2023-12-14T01:04:11;3.10;99.90
4566;DHT22;2295;51.050;14.608;2023-12-14T01:06:39;3.10;99.90
4566;DHT22;2295;51.050;14.608;2023-12-14T01:09:07;3.10;99.90
4566;DHT22;2295;51.050;14.608;2023-12-14T01:11:36;3.10;99.90
4566;DHT22;2295;51.050;14.608;2023-12-14T01:14:05;3.20;99.90
4566;DHT22;2295;51.050;14.608;2023-12-14T01:16:33;3.20;99.90
4566;DHT22;2295;51.050;14.608;2023-12-14T01:19:02;3.20;99.90
4566;DHT22;2295;51.050;14.608;2023-12-14T01:21:34;3.20;99.90
4566;DHT22;2295;51.050;14.608;2023-12-14T01:24:02;3.20;99.90
4566;DHT22;2295;51.050;14.608;2023-12-14T01:26:31;3.10;99.90
4566;DHT22;2295;51.050;14.608;2023-12-14T01:28:59;3.10;99.90
4566;DHT22;2295;51.050;14.608;2023-12-14T01:31:27;3.10;99.90
4566;DHT22;2295;51.050;14.608;2023-12-14T01:33:56;3.10;99.90
4566;DHT22;2295;51.050;14.608;2023-12-14T01:36:26;3.10;99.90
4566;DHT22;2295;51.050;14.608;2023-12-14T01:38:56;3.10;99.90
4566;DHT22;2295;51.050;14.608;2023-12-14T01:41:24;3.20;99.90
4566;DHT22;2295;51.050;14.608;2023-12-14T01:43:52;3.30;99.90
4566;DHT22;2295;51.050;14.608;2023-12-14T01:46:21;3.30;99.90
4566;DHT22;2295;51.050;14.608;2023-12-14T01:48:49;3.30;99.90
4566;DHT22;2295;51.050;14.608;2023-12-14T01:51:19;3.20;99.90
4566;DHT22;2295;51.050;14.608;2023-12-14T01:53:47;3.20;99.90
4566;DHT22;2295;51.050;14.608;2023-12-14T01:56:17;3.10;99.90
4566;DHT22;2295;51.050;14.608;2023-12-14T01:58:45;3.10;99.90
4566;DHT22;2295;51.050;14.608;2023-12-14T02:01:18;3.20;99.90
4566;DHT22;2295;51.050;14.608;2023-12-14T02:03:51;3.20;99.90
4566;DHT22;2295;51.050;14.608;2023-12-14T02:06:21;3.20;99.90
4566;DHT22;2295;51.050;14.608;2023-12-14T02:08:49;3.20;99.90
4566;DHT22;2295;51.050;14.608;2023-12-14T02:11:19;3.20;99.90
4566;DHT22;2295;51.050;14.608;2023-12-14T02:13:47;3.20;99.90
4566;DHT22;2295;51.050;14.608;2023-12-14T02:16:16;3.20;99.90
4566;DHT22;2295;51.050;14.608;2023-12-14T02:18:44;3.40;99.90
4566;DHT22;2295;51.050;14.608;2023-12-14T02:21:13;3.50;99.90
4566;DHT22;2295;51.050;14.608;2023-12-14T02:23:44;3.50;99.90
4566;DHT22;2295;51.050;14.608;2023-12-14T02:26:13;3.50;99.90
4566;DHT22;2295;51.050;14.608;2023-12-14T02:28:42;3.40;99.90
4566;DHT22;2295;51.050;14.608;2023-12-14T02:31:10;3.40;99.90
4566;DHT22;2295;51.050;14.608;2023-12-14T02:33:39;3.40;99.90
4566;DHT22;2295;51.050;14.608;2023-12-14T02:36:07;3.30;99.90
4566;DHT22;2295;51.050;14.608;2023-12-14T02:38:36;3.20;99.90
4566;DHT22;2295;51.050;14.608;2023-12-14T02:41:06;3.20;99.90
4566;DHT22;2295;51.050;14.608;2023-12-14T02:43:34;3.30;99.90
4566;DHT22;2295;51.050;14.608;2023-12-14T02:46:05;3.30;99.90
4566;DHT22;2295;51.050;14.608;2023-12-14T02:48:33;3.40;99.90
4566;DHT22;2295;51.050;14.608;2023-12-14T02:51:02;3.40;99.90
4566;DHT22;2295;51.050;14.608;2023-12-14T02:53:30;3.40;99.90
4566;DHT22;2295;51.050;14.608;2023-12-14T02:56:01;3.40;99.90
4566;DHT22;2295;51.050;14.608;2023-12-14T02:58:31;3.40;99.90
4566;DHT22;2295;51.050;14.608;2023-12-14T03:00:59;3.40;99.90
4566;DHT22;2295;51.050;14.608;2023-12-14T03:03:27;3.40;99.90
4566;DHT22;2295;51.050;14.608;2023-12-14T03:05:55;3.40;99.90
4566;DHT22;2295;51.050;14.608;2023-12-14T03:08:23;3.30;99.90
4566;DHT22;2295;51.050;14.608;2023-12-14T03:10:52;3.10;99.90
4566;DHT22;2295;51.050;14.608;2023-12-14T03:13:20;3.00;99.90
4566;DHT22;2295;51.050;14.608;2023-12-14T03:15:50;2.90;99.90
4566;DHT22;2295;51.050;14.608;2023-12-14T03:18:18;2.80;99.90
4566;DHT22;2295;51.050;14.608;2023-12-14T03:20:47;2.60;99.90
4566;DHT22;2295;51.050;14.608;2023-12-14T03:23:16;2.40;99.90
4566;DHT22;2295;51.050;14.608;2023-12-14T03:25:44;2.30;99.90
4566;DHT22;2295;51.050;14.608;2023-12-14T03:28:12;2.10;99.90
4566;DHT22;2295;51.050;14.608;2023-12-14T03:30:41;2.00;99.90
4566;DHT22;2295;51.050;14.608;2023-12-14T03:33:11;2.00;99.90
4566;DHT22;2295;51.050;14.608;2023-12-14T03:35:39;1.80;99.90
4566;DHT22;2295;51.050;14.608;2023-12-14T03:38:09;1.70;99.90
4566;DHT22;2295;51.050;14.608;2023-12-14T03:40:37;1.70;99.90
4566;DHT22;2295;51.050;14.608;2023-12-14T03:43:06;1.80;99.90
4566;DHT22;2295;51.050;14.608;2023-12-14T03:45:37;1.80;99.90
4566;DHT22;2295;51.050;14.608;2023-12-14T03:48:06;1.80;99.90
4566;DHT22;2295;51.050;14.608;2023-12-14T03:50:36;1.70;99.90
4566;DHT22;2295;51.050;14.608;2023-12-14T03:53:05;1.60;99.90
4566;DHT22;2295;51.050;14.608;2023-12-14T03:55:33;1.50;99.90
4566;DHT22;2295;51.050;14.608;2023-12-14T03:58:02;1.40;99.90
4566;DHT22;2295;51.050;14.608;2023-12-14T04:00:31;1.40;99.90
4566;DHT22;2295;51.050;14.608;2023-12-14T04:03:03;1.50;99.90
4566;DHT22;2295;51.050;14.608;2023-12-14T04:05:31;1.50;99.90
4566;DHT22;2295;51.050;14.608;2023-12-14T04:08:04;1.40;99.90
4566;DHT22;2295;51.050;14.608;2023-12-14T04:10:33;1.50;99.90
4566;DHT22;2295;51.050;14.608;2023-12-14T04:13:01;1.40;99.90
4566;DHT22;2295;51.050;14.608;2023-12-14T04:15:30;1.40;99.90
4566;DHT22;2295;51.050;14.608;2023-12-14T04:17:58;1.30;99.90
4566;DHT22;2295;51.050;14.608;2023-12-14T04:20:37;1.20;99.90
4566;DHT22;2295;51.050;14.608;2023-12-14T04:23:30;1.20;99.90
4566;DHT22;2295;51.050;14.608;2023-12-14T04:26:17;1.30;99.90
4566;DHT22;2295;51.050;14.608;2023-12-14T04:29:00;1.40;99.90
4566;DHT22;2295;51.050;14.608;2023-12-14T04:31:30;1.60;99.90
4566;DHT22;2295;51.050;14.608;2023-12-14T04:33:59;1.70;99.90
4566;DHT22;2295;51.050;14.608;2023-12-14T04:36:27;1.80;99.90
4566;DHT22;2295;51.050;14.608;2023-12-14T04:39:00;1.80;99.90
4566;DHT22;2295;51.050;14.608;2023-12-14T04:41:31;2.00;99.90
4566;DHT22;2295;51.050;14.608;2023-12-14T04:44:00;2.10;99.90
4566;DHT22;2295;51.050;14.608;2023-12-14T04:46:28;2.10;99.90
4566;DHT22;2295;51.050;14.608;2023-12-14T04:48:57;2.10;99.90
4566;DHT22;2295;51.050;14.608;2023-12-14T04:51:25;2.20;99.90
4566;DHT22;2295;51.050;14.608;2023-12-14T04:53:53;2.20;99.90
4566;DHT22;2295;51.050;14.608;2023-12-14T04:56:23;2.20;99.90
4566;DHT22;2295;51.050;14.608;2023-12-14T04:58:51;2.20;99.90
4566;DHT22;2295;51.050;14.608;2023-12-14T05:01:20;2.30;99.90
4566;DHT22;2295;51.050;14.608;2023-12-14T05:03:48;2.30;99.90
4566;DHT22;2295;51.050;14.608;2023-12-14T05:06:16;2.40;99.90
4566;DHT22;2295;51.050;14.608;2023-12-14T05:08:45;2.50;99.90
4566;DHT22;2295;51.050;14.608;2023-12-14T05:11:13;2.60;99.90
4566;DHT22;2295;51.050;14.608;2023-12-14T05:13:43;2.60;99.90
4566;DHT22;2295;51.050;14.608;2023-12-14T05:16:13;2.70;99.90
4566;DHT22;2295;51.050;14.608;2023-12-14T05:18:42;2.80;99.90
4566;DHT22;2295;51.050;14.608;2023-12-14T05:21:15;2.80;99.90
4566;DHT22;2295;51.050;14.608;2023-12-14T05:23:44;2.80;99.90
4566;DHT22;2295;51.050;14.608;2023-12-14T05:26:12;2.80;99.90
4566;DHT22;2295;51.050;14.608;2023-12-14T05:28:40;2.80;99.90
4566;DHT22;2295;51.050;14.608;2023-12-14T05:31:10;2.80;99.90
4566;DHT22;2295;51.050;14.608;2023-12-14T05:33:39;2.80;99.90
4566;DHT22;2295;51.050;14.608;2023-12-14T05:36:08;2.80;99.90
4566;DHT22;2295;51.050;14.608;2023-12-14T05:38:38;2.80;99.90
4566;DHT22;2295;51.050;14.608;2023-12-14T05:41:07;2.90;99.90
4566;DHT22;2295;51.050;14.608;2023-12-14T05:43:35;2.90;99.90
4566;DHT22;2295;51.050;14.608;2023-12-14T05:46:04;2.90;99.90
4566;DHT22;2295;51.050;14.608;2023-12-14T05:48:34;2.90;99.90
4566;DHT22;2295;51.050;14.608;2023-12-14T05:51:04;2.90;99.90
4566;DHT22;2295;51.050;14.608;2023-12-14T05:53:32;2.90;99.90
4566;DHT22;2295;51.050;14.608;2023-12-14T05:56:04;2.90;99.90
4566;DHT22;2295;51.050;14.608;2023-12-14T05:58:33;3.00;99.90
4566;DHT22;2295;51.050;14.608;2023-12-14T06:01:01;3.00;99.90
4566;DHT22;2295;51.050;14.608;2023-12-14T06:03:29;3.10;99.90
4566;DHT22;2295;51.050;14.608;2023-12-14T06:06:00;3.10;99.90
4566;DHT22;2295;51.050;14.608;2023-12-14T06:08:28;3.20;99.90
4566;DHT22;2295;51.050;14.608;2023-12-14T06:10:56;3.30;99.90
4566;DHT22;2295;51.050;14.608;2023-12-14T06:13:25;3.30;99.90
4566;DHT22;2295;51.050;14.608;2023-12-14T06:15:53;3.40;99.90
4566;DHT22;2295;51.050;14.608;2023-12-14T06:18:21;3.40;99.90
4566;DHT22;2295;51.050;14.608;2023-12-14T06:20:50;3.30;99.90
4566;DHT22;2295;51.050;14.608;2023-12-14T06:23:20;3.30;99.90
4566;DHT22;2295;51.050;14.608;2023-12-14T06:25:48;3.30;99.90
4566;DHT22;2295;51.050;14.608;2023-12-14T06:28:17;3.30;99.90
4566;DHT22;2295;51.050;14.608;2023-12-14T06:30:45;3.30;99.90
4566;DHT22;2295;51.050;14.608;2023-12-14T06:33:13;3.30;99.90
4566;DHT22;2295;51.050;14.608;2023-12-14T06:35:42;3.40;99.90
4566;DHT22;2295;51.050;14.608;2023-12-14T06:38:11;3.40;99.90
4566;DHT22;2295;51.050;14.608;2023-12-14T06:40:41;3.50;99.90
4566;DHT22;2295;51.050;14.608;2023-12-14T06:43:09;3.50;99.90
4566;DHT22;2295;51.050;14.608;2023-12-14T06:45:39;3.60;99.90
4566;DHT22;2295;51.050;14.608;2023-12-14T06:48:07;3.60;99.90
4566;DHT22;2295;51.050;14.608;2023-12-14T06:50:35;3.60;99.90
4566;DHT22;2295;51.050;14.608;2023-12-14T06:53:04;3.70;99.90
4566;DHT22;2295;51.050;14.608;2023-12-14T06:55:33;3.60;99.90
4566;DHT22;2295;51.050;14.608;2023-12-14T06:58:02;3.70;99.90
4566;DHT22;2295;51.050;14.608;2023-12-14T07:00:35;3.60;99.90
4566;DHT22;2295;51.050;14.608;2023-12-14T07:03:03;3.60;99.90
4566;DHT22;2295;51.050;14.608;2023-12-14T07:05:32;3.70;99.90
4566;DHT22;2295;51.050;14.608;2023-12-14T07:08:01;3.70;99.90
4566;DHT22;2295;51.050;14.608;2023-12-14T07:10:29;3.70;99.90
4566;DHT22;2295;51.050;14.608;2023-12-14T07:12:57;3.70;99.90
4566;DHT22;2295;51.050;14.608;2023-12-14T07:15:27;3.80;99.90
4566;DHT22;2295;51.050;14.608;2023-12-14T07:17:55;3.80;99.90
4566;DHT22;2295;51.050;14.608;2023-12-14T07:20:24;3.80;99.90
4566;DHT22;2295;51.050;14.608;2023-12-14T07:22:52;3.90;99.90
4566;DHT22;2295;51.050;14.608;2023-12-14T07:25:20;4.00;99.90
4566;DHT22;2295;51.050;14.608;2023-12-14T07:27:49;4.10;99.90
4566;DHT22;2295;51.050;14.608;2023-12-14T07:30:17;4.10;99.90
4566;DHT22;2295;51.050;14.608;2023-12-14T07:32:47;4.10;99.90
4566;DHT22;2295;51.050;14.608;2023-12-14T07:35:16;4.10;99.90
4566;DHT22;2295;51.050;14.608;2023-12-14T07:37:44;4.10;99.90
4566;DHT22;2295;51.050;14.608;2023-12-14T07:40:13;4.10;99.90
4566;DHT22;2295;51.050;14.608;2023-12-14T07:42:41;4.10;99.90
4566;DHT22;2295;51.050;14.608;2023-12-14T07:45:09;4.20;99.90
4566;DHT22;2295;51.050;14.608;2023-12-14T07:47:38;4.20;99.90
4566;DHT22;2295;51.050;14.608;2023-12-14T07:50:09;4.20;99.90
4566;DHT22;2295;51.050;14.608;2023-12-14T07:52:37;4.20;99.90
4566;DHT22;2295;51.050;14.608;2023-12-14T07:55:06;4.20;99.90
4566;DHT22;2295;51.050;14.608;2023-12-14T07:57:35;4.20;99.90
4566;DHT22;2295;51.050;14.608;2023-12-14T08:00:12;4.30;99.90
4566;DHT22;2295;51.050;14.608;2023-12-14T08:02:41;4.30;99.90
4566;DHT22;2295;51.050;14.608;2023-12-14T08:05:11;4.30;99.90
4566;DHT22;2295;51.050;14.608;2023-12-14T08:07:39;4.30;99.90
4566;DHT22;2295;51.050;14.608;2023-12-14T08:10:08;4.30;99.90
4566;DHT22;2295;51.050;14.608;2023-12-14T08:12:37;4.20;99.90
4566;DHT22;2295;51.050;14.608;2023-12-14T08:15:06;4.20;99.90
4566;DHT22;2295;51.050;14.608;2023-12-14T08:17:35;4.20;99.90
4566;DHT22;2295;51.050;14.608;2023-12-14T08:20:05;4.20;99.90
4566;DHT22;2295;51.050;14.608;2023-12-14T08:22:37;4.20;99.90
4566;DHT22;2295;51.050;14.608;2023-12-14T08:25:12;4.20;99.90
4566;DHT22;2295;51.050;14.608;2023-12-14T08:27:42;4.20;99.90
4566;DHT22;2295;51.050;14.608;2023-12-14T08:30:12;4.20;99.90
4566;DHT22;2295;51.050;14.608;2023-12-14T08:32:44;4.20;99.90
4566;DHT22;2295;51.050;14.608;2023-12-14T08:35:15;4.20;99.90
4566;DHT22;2295;51.050;14.608;2023-12-14T08:37:45;4.20;99.90
4566;DHT22;2295;51.050;14.608;2023-12-14T08:40:13;4.20;99.90
4566;DHT22;2295;51.050;14.608;2023-12-14T08:42:42;4.20;99.90
4566;DHT22;2295;51.050;14.608;2023-12-14T08:45:10;4.20;99.90
4566;DHT22;2295;51.050;14.608;2023-12-14T08:47:39;4.20;99.90
4566;DHT22;2295;51.050;14.608;2023-12-14T08:50:08;4.20;99.90
4566;DHT22;2295;51.050;14.608;2023-12-14T08:52:38;4.20;99.90
4566;DHT22;2295;51.050;14.608;2023-12-14T08:55:11;4.20;99.90
4566;DHT22;2295;51.050;14.608;2023-12-14T08:57:41;4.30;99.90
4566;DHT22;2295;51.050;14.608;2023-12-14T09:00:13;4.30;99.90
4566;DHT22;2295;51.050;14.608;2023-12-14T09:02:54;4.30;99.90
4566;DHT22;2295;51.050;14.608;2023-12-14T09:05:26;4.30;99.90
4566;DHT22;2295;51.050;14.608;2023-12-14T09:07:55;4.40;99.90
4566;DHT22;2295;51.050;14.608;2023-12-14T09:10:26;4.30;99.90
4566;DHT22;2295;51.050;14.608;2023-12-14T09:12:55;4.30;99.90
4566;DHT22;2295;51.050;14.608;2023-12-14T09:15:23;4.30;99.90
4566;DHT22;2295;51.050;14.608;2023-12-14T09:17:52;4.30;99.90
4566;DHT22;2295;51.050;14.608;2023-12-14T09:20:23;4.20;99.90
4566;DHT22;2295;51.050;14.608;2023-12-14T09:22:52;4.20;99.90
4566;DHT22;2295;51.050;14.608;2023-12-14T09:25:20;4.20;99.90
4566;DHT22;2295;51.050;14.608;2023-12-14T09:27:50;4.20;99.90
4566;DHT22;2295;51.050;14.608;2023-12-14T09:30:19;4.20;99.90
4566;DHT22;2295;51.050;14.608;2023-12-14T09:32:47;4.20;99.90
4566;DHT22;2295;51.050;14.608;2023-12-14T09:35:16;4.10;99.90
4566;DHT22;2295;51.050;14.608;2023-12-14T09:37:45;4.20;99.90
4566;DHT22;2295;51.050;14.608;2023-12-14T09:40:14;4.20;99.90
4566;DHT22;2295;51.050;14.608;2023-12-14T09:42:43;4.20;99.90
4566;DHT22;2295;51.050;14.608;2023-12-14T09:45:13;4.20;99.90
4566;DHT22;2295;51.050;14.608;2023-12-14T09:47:45;4.20;99.90
4566;DHT22;2295;51.050;14.608;2023-12-14T09:50:14;4.20;99.90
4566;DHT22;2295;51.050;14.608;2023-12-14T09:52:43;4.20;99.90
4566;DHT22;2295;51.050;14.608;2023-12-14T09:55:12;4.20;99.90
4566;DHT22;2295;51.050;14.608;2023-12-14T09:57:41;4.20;99.90
4566;DHT22;2295;51.050;14.608;2023-12-14T10:00:10;4.20;99.90
4566;DHT22;2295;51.050;14.608;2023-12-14T10:02:42;4.20;99.90
4566;DHT22;2295;51.050;14.608;2023-12-14T10:05:10;4.20;99.90
4566;DHT22;2295;51.050;14.608;2023-12-14T10:07:41;4.20;99.90
4566;DHT22;2295;51.050;14.608;2023-12-14T10:10:12;4.20;99.90
4566;DHT22;2295;51.050;14.608;2023-12-14T10:12:53;4.20;99.90
4566;DHT22;2295;51.050;14.608;2023-12-14T10:15:22;4.30;99.90
4566;DHT22;2295;51.050;14.608;2023-12-14T10:17:53;4.30;99.90
4566;DHT22;2295;51.050;14.608;2023-12-14T10:20:23;4.30;99.90
4566;DHT22;2295;51.050;14.608;2023-12-14T10:22:53;4.30;99.90
4566;DHT22;2295;51.050;14.608;2023-12-14T10:25:23;4.30;99.90
4566;DHT22;2295;51.050;14.608;2023-12-14T10:27:54;4.30;99.90
4566;DHT22;2295;51.050;14.608;2023-12-14T10:30:25;4.30;99.90
4566;DHT22;2295;51.050;14.608;2023-12-14T10:32:56;4.30;99.90
4566;DHT22;2295;51.050;14.608;2023-12-14T10:35:25;4.30;99.90
4566;DHT22;2295;51.050;14.608;2023-12-14T10:38:01;4.20;99.90
4566;DHT22;2295;51.050;14.608;2023-12-14T10:40:31;4.20;99.90
4566;DHT22;2295;51.050;14.608;2023-12-14T10:43:00;4.20;99.90
4566;DHT22;2295;51.050;14.608;2023-12-14T10:45:31;4.30;99.90
4566;DHT22;2295;51.050;14.608;2023-12-14T10:48:02;4.30;99.90
4566;DHT22;2295;51.050;14.608;2023-12-14T10:50:33;4.30;99.90
4566;DHT22;2295;51.050;14.608;2023-12-14T10:53:07;4.30;99.90
4566;DHT22;2295;51.050;14.608;2023-12-14T10:55:37;4.40;99.90
4566;DHT22;2295;51.050;14.608;2023-12-14T10:58:08;4.50;99.90
4566;DHT22;2295;51.050;14.608;2023-12-14T11:03:25;4.60;99.90
4566;DHT22;2295;51.050;14.608;2023-12-14T11:06:20;4.50;99.90
4566;DHT22;2295;51.050;14.608;2023-12-14T11:08:52;4.40;99.90
4566;DHT22;2295;51.050;14.608;2023-12-14T11:11:27;4.40;99.90
4566;DHT22;2295;51.050;14.608;2023-12-14T11:13:59;4.40;99.90
4566;DHT22;2295;51.050;14.608;2023-12-14T11:16:27;4.40;99.90
4566;DHT22;2295;51.050;14.608;2023-12-14T11:19:32;4.30;99.90
4566;DHT22;2295;51.050;14.608;2023-12-14T11:22:11;4.30;99.90
4566;DHT22;2295;51.050;14.608;2023-12-14T11:24:55;4.30;99.90
4566;DHT22;2295;51.050;14.608;2023-12-14T11:27:29;4.20;99.90
4566;DHT22;2295;51.050;14.608;2023-12-14T11:29:58;4.20;99.90
4566;DHT22;2295;51.050;14.608;2023-12-14T11:32:26;4.10;99.90
4566;DHT22;2295;51.050;14.608;2023-12-14T11:34:57;4.10;99.90
4566;DHT22;2295;51.050;14.608;2023-12-14T11:37:25;4.00;99.90
4566;DHT22;2295;51.050;14.608;2023-12-14T11:39:55;4.00;99.90
4566;DHT22;2295;51.050;14.608;2023-12-14T11:42:23;4.00;99.90
4566;DHT22;2295;51.050;14.608;2023-12-14T11:44:52;4.00;99.90
4566;DHT22;2295;51.050;14.608;2023-12-14T11:47:24;4.00;99.90
4566;DHT22;2295;51.050;14.608;2023-12-14T11:49:52;3.90;99.90
4566;DHT22;2295;51.050;14.608;2023-12-14T11:52:22;3.90;99.90
4566;DHT22;2295;51.050;14.608;2023-12-14T11:54:50;3.80;99.90
4566;DHT22;2295;51.050;14.608;2023-12-14T11:57:27;3.80;99.90
4566;DHT22;2295;51.050;14.608;2023-12-14T12:00:00;3.80;99.90
4566;DHT22;2295;51.050;14.608;2023-12-14T12:02:33;3.70;99.90
4566;DHT22;2295;51.050;14.608;2023-12-14T12:05:05;3.70;99.90
4566;DHT22;2295;51.050;14.608;2023-12-14T12:07:35;3.70;99.90
4566;DHT22;2295;51.050;14.608;2023-12-14T12:10:05;3.70;99.90
4566;DHT22;2295;51.050;14.608;2023-12-14T12:12:34;3.70;99.90
4566;DHT22;2295;51.050;14.608;2023-12-14T12:15:09;3.70;99.90
4566;DHT22;2295;51.050;14.608;2023-12-14T12:17:39;3.60;99.90
4566;DHT22;2295;51.050;14.608;2023-12-14T12:20:10;3.60;99.90
4566;DHT22;2295;51.050;14.608;2023-12-14T12:23:16;3.70;99.90
4566;DHT22;2295;51.050;14.608;2023-12-14T12:26:10;3.70;99.90
4566;DHT22;2295;51.050;14.608;2023-12-14T12:28:43;3.70;99.90
4566;DHT22;2295;51.050;14.608;2023-12-14T12:31:16;3.70;99.90
4566;DHT22;2295;51.050;14.608;2023-12-14T12:33:51;3.70;99.90
4566;DHT22;2295;51.050;14.608;2023-12-14T12:36:28;3.70;99.90
4566;DHT22;2295;51.050;14.608;2023-12-14T12:39:41;3.70;99.90
4566;DHT22;2295;51.050;14.608;2023-12-14T12:42:10;3.70;99.90
4566;DHT22;2295;51.050;14.608;2023-12-14T12:44:43;3.60;99.90
4566;DHT22;2295;51.050;14.608;2023-12-14T12:47:36;3.60;99.90
4566;DHT22;2295;51.050;14.608;2023-12-14T12:50:25;3.60;99.90
4566;DHT22;2295;51.050;14.608;2023-12-14T12:53:03;3.60;99.90
4566;DHT22;2295;51.050;14.608;2023-12-14T12:55:33;3.50;99.90
4566;DHT22;2295;51.050;14.608;2023-12-14T12:58:07;3.60;99.90
4566;DHT22;2295;51.050;14.608;2023-12-14T13:00:40;3.50;99.90
4566;DHT22;2295;51.050;14.608;2023-12-14T13:03:31;3.50;99.90
4566;DHT22;2295;51.050;14.608;2023-12-14T13:05:59;3.50;99.90
4566;DHT22;2295;51.050;14.608;2023-12-14T13:08:40;3.50;99.90
4566;DHT22;2295;51.050;14.608;2023-12-14T13:11:17;3.50;99.90
4566;DHT22;2295;51.050;14.608;2023-12-14T13:17:02;3.50;99.90
4566;DHT22;2295;51.050;14.608;2023-12-14T13:19:46;3.40;99.90
4566;DHT22;2295;51.050;14.608;2023-12-14T13:22:14;3.40;99.90
4566;DHT22;2295;51.050;14.608;2023-12-14T13:24:42;3.40;99.90
4566;DHT22;2295;51.050;14.608;2023-12-14T13:27:17;3.40;99.90
4566;DHT22;2295;51.050;14.608;2023-12-14T13:29:45;3.30;99.90
4566;DHT22;2295;51.050;14.608;2023-12-14T13:32:16;3.30;99.90
4566;DHT22;2295;51.050;14.608;2023-12-14T13:34:48;3.30;99.90
4566;DHT22;2295;51.050;14.608;2023-12-14T13:37:37;3.30;99.90
4566;DHT22;2295;51.050;14.608;2023-12-14T13:40:17;3.30;99.90
4566;DHT22;2295;51.050;14.608;2023-12-14T13:42:56;3.30;99.90
4566;DHT22;2295;51.050;14.608;2023-12-14T13:45:33;3.30;99.90
4566;DHT22;2295;51.050;14.608;2023-12-14T13:48:02;3.20;99.90
4566;DHT22;2295;51.050;14.608;2023-12-14T13:50:33;3.20;99.90
4566;DHT22;2295;51.050;14.608;2023-12-14T13:53:08;3.20;99.90
4566;DHT22;2295;51.050;14.608;2023-12-14T13:55:37;3.20;99.90
4566;DHT22;2295;51.050;14.608;2023-12-14T13:58:15;3.20;99.90
4566;DHT22;2295;51.050;14.608;2023-12-14T14:00:44;3.20;99.90
4566;DHT22;2295;51.050;14.608;2023-12-14T14:03:13;3.20;99.90
4566;DHT22;2295;51.050;14.608;2023-12-14T14:05:41;3.20;99.90
4566;DHT22;2295;51.050;14.608;2023-12-14T14:08:11;3.20;99.90
4566;DHT22;2295;51.050;14.608;2023-12-14T14:10:58;3.20;99.90
4566;DHT22;2295;51.050;14.608;2023-12-14T14:13:31;3.20;99.90
4566;DHT22;2295;51.050;14.608;2023-12-14T14:16:00;3.10;99.90
4566;DHT22;2295;51.050;14.608;2023-12-14T14:18:28;3.10;99.90
4566;DHT22;2295;51.050;14.608;2023-12-14T14:20:56;3.10;99.90
4566;DHT22;2295;51.050;14.608;2023-12-14T14:23:48;3.10;99.90
4566;DHT22;2295;51.050;14.608;2023-12-14T14:26:16;3.10;99.90
4566;DHT22;2295;51.050;14.608;2023-12-14T14:28:46;3.10;99.90
4566;DHT22;2295;51.050;14.608;2023-12-14T14:31:14;3.10;99.90
4566;DHT22;2295;51.050;14.608;2023-12-14T14:33:43;3.10;99.90
4566;DHT22;2295;51.050;14.608;2023-12-14T14:36:17;3.10;99.90
4566;DHT22;2295;51.050;14.608;2023-12-14T14:38:46;3.10;99.90
4566;DHT22;2295;51.050;14.608;2023-12-14T14:41:14;3.10;99.90
4566;DHT22;2295;51.050;14.608;2023-12-14T14:43:52;3.10;99.90
4566;DHT22;2295;51.050;14.608;2023-12-14T14:46:30;3.10;99.90
4566;DHT22;2295;51.050;14.608;2023-12-14T14:49:04;3.10;99.90
4566;DHT22;2295;51.050;14.608;2023-12-14T14:51:32;3.10;99.90
4566;DHT22;2295;51.050;14.608;2023-12-14T14:54:01;3.00;99.90
4566;DHT22;2295;51.050;14.608;2023-12-14T14:56:29;3.00;99.90
4566;DHT22;2295;51.050;14.608;2023-12-14T14:58:59;3.00;99.90
4566;DHT22;2295;51.050;14.608;2023-12-14T15:01:33;2.90;99.90
4566;DHT22;2295;51.050;14.608;2023-12-14T15:04:01;2.90;99.90
4566;DHT22;2295;51.050;14.608;2023-12-14T15:06:30;2.90;99.90
4566;DHT22;2295;51.050;14.608;2023-12-14T15:09:01;2.90;99.90
4566;DHT22;2295;51.050;14.608;2023-12-14T15:11:34;2.90;99.90
4566;DHT22;2295;51.050;14.608;2023-12-14T15:14:08;2.80;99.90
4566;DHT22;2295;51.050;14.608;2023-12-14T15:16:39;2.80;99.90
4566;DHT22;2295;51.050;14.608;2023-12-14T15:19:11;2.80;99.90
4566;DHT22;2295;51.050;14.608;2023-12-14T15:21:39;2.80;99.90
4566;DHT22;2295;51.050;14.608;2023-12-14T15:24:08;2.80;99.90
4566;DHT22;2295;51.050;14.608;2023-12-14T15:27:00;2.70;99.90
4566;DHT22;2295;51.050;14.608;2023-12-14T15:29:37;2.70;99.90
4566;DHT22;2295;51.050;14.608;2023-12-14T15:32:08;2.70;99.90
4566;DHT22;2295;51.050;14.608;2023-12-14T15:34:38;2.60;99.90
4566;DHT22;2295;51.050;14.608;2023-12-14T15:37:07;2.60;99.90
4566;DHT22;2295;51.050;14.608;2023-12-14T15:39:36;2.60;99.90
4566;DHT22;2295;51.050;14.608;2023-12-14T15:42:05;2.60;99.90
4566;DHT22;2295;51.050;14.608;2023-12-14T15:44:44;2.60;99.90
4566;DHT22;2295;51.050;14.608;2023-12-14T15:47:22;2.60;99.90
4566;DHT22;2295;51.050;14.608;2023-12-14T15:50:15;2.60;99.90
4566;DHT22;2295;51.050;14.608;2023-12-14T15:52:44;2.60;99.90
4566;DHT22;2295;51.050;14.608;2023-12-14T15:55:12;2.60;99.90
4566;DHT22;2295;51.050;14.608;2023-12-14T15:57:50;2.60;99.90
4566;DHT22;2295;51.050;14.608;2023-12-14T16:00:29;2.60;99.90
4566;DHT22;2295;51.050;14.608;2023-12-14T16:03:05;2.60;99.90
4566;DHT22;2295;51.050;14.608;2023-12-14T16:05:35;2.60;99.90
4566;DHT22;2295;51.050;14.608;2023-12-14T16:08:04;2.60;99.90
4566;DHT22;2295;51.050;14.608;2023-12-14T16:10:36;2.60;99.90
4566;DHT22;2295;51.050;14.608;2023-12-14T16:13:05;2.60;99.90
4566;DHT22;2295;51.050;14.608;2023-12-14T16:15:35;2.60;99.90
4566;DHT22;2295;51.050;14.608;2023-12-14T16:18:03;2.50;99.90
4566;DHT22;2295;51.050;14.608;2023-12-14T16:20:32;2.50;99.90
4566;DHT22;2295;51.050;14.608;2023-12-14T16:23:04;2.50;99.90
4566;DHT22;2295;51.050;14.608;2023-12-14T16:25:32;2.50;99.90
4566;DHT22;2295;51.050;14.608;2023-12-14T16:28:01;2.50;99.90
4566;DHT22;2295;51.050;14.608;2023-12-14T16:30:30;2.50;99.90
4566;DHT22;2295;51.050;14.608;2023-12-14T16:33:00;2.50;99.90